MDPP

Details ICAO MDPP (POP)
Name Puerto Plata Gregorio Luperon International
Region Dominican Republic
Timezone America/Santo_Domingo (UTC-4.0)
Plans Departing 230
Arriving 304
Stats Elevation 15 ft / 5 m (AMSL)
Location 19.757900° -70.570000°
Runways 1
Magnetic Variation 11.311° W
Sunrise 2019-02-21 11:09:13 UTC / 2019-02-21 07:09:13 Local
Sunset 2019-02-21 22:45:35 UTC / 2019-02-21 18:45:35 Local
Advertisement - Login to hide

Runways

ID Width Length Bearing (true/mag) Surface Threshold Overrun Markings Lighting
08 151 ft / 46 m 10,103 ft / 3,080 m 72.94° / 84.25° ASPHALT 0 ft / 0 m 0 ft / 0 m PREC-APP EDGE THRESHOLD REIL-OMNI
26 151 ft / 46 m 10,103 ft / 3,080 m 252.95° / 264.26° ASPHALT 0 ft / 0 m 0 ft / 0 m PREC-APP EDGE THRESHOLD REIL-OMNI

Map

Weather


0- 5 10 15 20 25 30 35+ Temperature / °C

Clouds and Precipitation
Forecast for 2019-02-21 18:00 UTC. Updated an hour ago

Ground ~20,000 ft ~40,000 ft Winds

METAR

MDPP 211600Z 09015KT 9999 SCT022 29/20 Q1020

TAF

TAF MDPP 210400Z 2106/2206 00000KT 9999 FEW018 PROB30 2106/2112 8000-RA BKN016

Frequencies

Approach 119.00 MHz PUERTO PLATA APP
Tower 118.00 MHz PUERTO PLATA TWR
Ground 121.90 MHz
Warning: Do not use this data for real-world aviation or navigation. No guarantee of current accuracy is given.